Sebastopol, CA (95472)

9:33 PM PDT on August 25, 2016 (GMT -0700)
West sebastopol | | Change Station

Elev 171 ft 38.40 °N, 122.84 °W | Updated 4 minutes ago

Mostly Cloudy
Mostly Cloudy
62.5 °F
Feels Like 62.5 °F
N
2.7
Wind Variable Wind from SSW

Today
High -- | Low -- °F
--% Chance of Precip.
Yesterday
High -- | Low -- °F
Precip. -- in
Pressure 29.89 in
Visibility 10.0 miles
Clouds Mostly Cloudy 800 ft
Dew Point 61 °F
Humidity 96%
Rainfall 0.00 in
Snow Depth Not available.
6:35 AM 7:50 PM
Last Quarter, 38% visible
SPECI KSTS 260405Z AUTO 18006KT 10SM BKN008 14/13 A2989 RMK AO2 T01390128
Pressure 29.89 in
Visibility 10.0 miles
Clouds Mostly Cloudy 800 ft
Dew Point 61 °F
Humidity 96%
Rainfall 0.00 in
Snow Depth Not available.
6:35 AM 7:50 PM
Last Quarter, 38% visible
SPECI KSTS 260405Z AUTO 18006KT 10SM BKN008 14/13 A2989 RMK AO2 T01390128
A tropical disturbance pushing toward the Bahamas, is expected to develop into a tropical depression or storm, and will likely target Florida and the Gulf Coast this weekend into next week.

Right now, the disturbance remains a broad area of low pressure pushing through the Dominican Republic and Haiti, headed toward the southeast Bahamas. Rainfall totals over 3 inches (with locally higher amounts) are expected in HispaƱiola, particularly over elevated terrain.

10-Day Weather Forecast

Almanac

Astronomy

Aug. 25, 2016 Rise Set
Actual Time
Civil Twilight
Nautical Twilight
Astronomical Twilight
Moon
Length of Visible Light
Length of Day
Tomorrow will be .
, % of the Moon is Illuminated

Today's Extremes

State Highs State Lows

Community

WunderPhotos

Upload Photos

1,935,056 photos uploaded!

WunderBlog® & News

Nearby

Air Quality

  Air Quality AQ Index Pollutant
Not available.

Snow Depth

Station Depth Elevation

Earthquake Activity

City Distance Mag. Time & Date
Minimum magnitude displayed is 2.5.

Coastal Water Temperatures

Place Temperature

Stations

Nearby Weather Stations

Station Location Temp. Windchill Dew Point Humidity Wind Precip. Elev Updated Type
                   

Watches & Warnings

There are currently no watches in effect.